Hovedside
METAR-TAF:

METAR-TAF

Lufthavner :

Mans flyplass

Man,

breddegrad: 54-05N, lengdegrad: 004-38W, høyde over havet: 17 m

Gjeldene værobservasjon

Denne rapporten ble laget for 42 minutter siden, klokken 04:50 UTC
Vind 4 kt fra Nord-nordøst
Temperatur 12°C
Luftfuktighet 94%
Trykk 1009 hPa
Sikt: 3000 m
Få skyer i en høyde av 400 ft
tåke i nærheten

METAR: EGNS 150450Z 02004KT 9999 3000N VCFG FEW004 12/11 Q1009 TEMPO 6000

Tid: 06:32 (05:32 UTC)

Varsel

Denne rapporten ble laget for 35 minutter siden, klokken 04:57 UTC
Varsel gyldig fra 15. klokken 05 UTC til 15. klokken 12 UTC
Vind 5 kt fra skiftende retning
Sikt 10 km eller mer
Få skyer i en høyde av 400 ft
Midlertidig
fra 15. klokken 05 UTC til 15. klokken 09 UTC
Sikt: 8000 m
Sannsynlighet 30% :
Midlertidig
fra 15. klokken 05 UTC til 15. klokken 08 UTC
Sikt: 0500 m
tåkebanker,

TAF: EGNS 150457Z 1505/1512 VRB05KT 9999 FEW004 TEMPO 1505/1509 8000 PROB30 TEMPO 1505/1508 0500 BCFG

Værobservasjoner og værvarsel for over 4000 flyplasser (METAR- og TAF-rapporter).

Tilgjengelige stasjoner er representert av de røde og gule prikkene på kartet.

Hold musepekeren over prikken for å se navnet på stasjonen.

Klikk så for å se værobservasjoner og -varsler.

For å forandre kartet kan du klikke på den grønne knappen med svart kryss for å zoome inn, på den grønne knappen med strek for å zoome ut, eller på de grønne pilene for å se tilstøtende kart.


METAR-TAF: